sensor_id;sensor_type;location;lat;lon;timestamp;P1;durP1;ratioP1;P2;durP2;ratioP2
7563;SDS011;3823;53.586;10.040;2023-01-28T00:01:08;1.70;;;1.00;;
7563;SDS011;3823;53.586;10.040;2023-01-28T00:03:35;6.53;;;1.35;;
7563;SDS011;3823;53.586;10.040;2023-01-28T00:06:02;2.13;;;1.13;;
7563;SDS011;3823;53.586;10.040;2023-01-28T00:08:29;3.95;;;1.70;;
7563;SDS011;3823;53.586;10.040;2023-01-28T00:10:57;3.47;;;1.00;;
7563;SDS011;3823;53.586;10.040;2023-01-28T00:13:23;2.30;;;1.00;;
7563;SDS011;3823;53.586;10.040;2023-01-28T00:15:55;1.65;;;1.15;;
7563;SDS011;3823;53.586;10.040;2023-01-28T00:18:23;1.50;;;1.00;;
7563;SDS011;3823;53.586;10.040;2023-01-28T00:20:59;4.15;;;1.55;;
7563;SDS011;3823;53.586;10.040;2023-01-28T00:23:29;1.77;;;1.25;;
7563;SDS011;3823;53.586;10.040;2023-01-28T00:25:57;4.63;;;1.13;;
7563;SDS011;3823;53.586;10.040;2023-01-28T00:28:23;2.40;;;1.27;;
7563;SDS011;3823;53.586;10.040;2023-01-28T00:30:49;3.85;;;1.48;;
7563;SDS011;3823;53.586;10.040;2023-01-28T00:33:15;1.58;;;1.48;;
7563;SDS011;3823;53.586;10.040;2023-01-28T00:35:40;1.40;;;1.13;;
7563;SDS011;3823;53.586;10.040;2023-01-28T00:38:06;2.22;;;1.10;;
7563;SDS011;3823;53.586;10.040;2023-01-28T00:40:32;2.95;;;1.17;;
7563;SDS011;3823;53.586;10.040;2023-01-28T00:42:58;3.85;;;1.27;;
7563;SDS011;3823;53.586;10.040;2023-01-28T00:45:24;1.33;;;1.15;;
7563;SDS011;3823;53.586;10.040;2023-01-28T00:47:49;2.00;;;1.80;;
7563;SDS011;3823;53.586;10.040;2023-01-28T00:50:15;1.23;;;1.13;;
7563;SDS011;3823;53.586;10.040;2023-01-28T00:52:41;2.35;;;1.10;;
7563;SDS011;3823;53.586;10.040;2023-01-28T00:55:06;1.50;;;1.40;;
7563;SDS011;3823;53.586;10.040;2023-01-28T00:57:32;3.83;;;1.30;;
7563;SDS011;3823;53.586;10.040;2023-01-28T00:59:58;2.28;;;1.50;;
7563;SDS011;3823;53.586;10.040;2023-01-28T01:02:24;2.92;;;1.77;;
7563;SDS011;3823;53.586;10.040;2023-01-28T01:04:51;1.85;;;1.50;;
7563;SDS011;3823;53.586;10.040;2023-01-28T01:07:23;1.67;;;1.40;;
7563;SDS011;3823;53.586;10.040;2023-01-28T01:09:57;1.98;;;1.60;;
7563;SDS011;3823;53.586;10.040;2023-01-28T01:12:24;1.98;;;1.60;;
7563;SDS011;3823;53.586;10.040;2023-01-28T01:14:49;1.23;;;1.02;;
7563;SDS011;3823;53.586;10.040;2023-01-28T01:17:15;2.45;;;2.17;;
7563;SDS011;3823;53.586;10.040;2023-01-28T01:19:41;2.15;;;1.50;;
7563;SDS011;3823;53.586;10.040;2023-01-28T01:22:07;2.72;;;1.60;;
7563;SDS011;3823;53.586;10.040;2023-01-28T01:24:32;2.22;;;1.40;;
7563;SDS011;3823;53.586;10.040;2023-01-28T01:26:58;1.58;;;1.30;;
7563;SDS011;3823;53.586;10.040;2023-01-28T01:29:24;1.45;;;1.27;;
7563;SDS011;3823;53.586;10.040;2023-01-28T01:31:49;1.52;;;1.42;;
7563;SDS011;3823;53.586;10.040;2023-01-28T01:34:15;1.40;;;1.08;;
7563;SDS011;3823;53.586;10.040;2023-01-28T01:36:41;1.73;;;1.63;;
7563;SDS011;3823;53.586;10.040;2023-01-28T01:39:12;1.20;;;1.10;;
7563;SDS011;3823;53.586;10.040;2023-01-28T01:41:38;2.35;;;1.48;;
7563;SDS011;3823;53.586;10.040;2023-01-28T01:44:04;1.48;;;1.23;;
7563;SDS011;3823;53.586;10.040;2023-01-28T01:49:06;1.65;;;1.55;;
7563;SDS011;3823;53.586;10.040;2023-01-28T01:51:41;1.65;;;1.55;;
7563;SDS011;3823;53.586;10.040;2023-01-28T01:54:08;3.40;;;1.17;;
7563;SDS011;3823;53.586;10.040;2023-01-28T01:56:34;2.10;;;1.35;;
7563;SDS011;3823;53.586;10.040;2023-01-28T01:59:03;1.73;;;1.10;;
7563;SDS011;3823;53.586;10.040;2023-01-28T02:01:33;3.33;;;1.20;;
7563;SDS011;3823;53.586;10.040;2023-01-28T02:04:09;1.33;;;1.02;;
7563;SDS011;3823;53.586;10.040;2023-01-28T02:06:41;1.40;;;0.90;;
7563;SDS011;3823;53.586;10.040;2023-01-28T02:09:27;1.48;;;1.33;;
7563;SDS011;3823;53.586;10.040;2023-01-28T02:11:55;1.90;;;1.35;;
7563;SDS011;3823;53.586;10.040;2023-01-28T02:14:26;1.60;;;1.33;;
7563;SDS011;3823;53.586;10.040;2023-01-28T02:16:55;1.20;;;0.90;;
7563;SDS011;3823;53.586;10.040;2023-01-28T02:19:21;4.38;;;1.23;;
7563;SDS011;3823;53.586;10.040;2023-01-28T02:22:09;2.10;;;1.50;;
7563;SDS011;3823;53.586;10.040;2023-01-28T02:30:15;2.78;;;2.50;;
7563;SDS011;3823;53.586;10.040;2023-01-28T02:32:51;1.85;;;1.52;;
7563;SDS011;3823;53.586;10.040;2023-01-28T02:37:54;1.10;;;0.80;;
7563;SDS011;3823;53.586;10.040;2023-01-28T02:40:28;2.58;;;1.08;;
7563;SDS011;3823;53.586;10.040;2023-01-28T02:42:56;3.42;;;2.22;;
7563;SDS011;3823;53.586;10.040;2023-01-28T02:45:23;1.98;;;1.20;;
7563;SDS011;3823;53.586;10.040;2023-01-28T02:48:18;1.98;;;1.75;;
7563;SDS011;3823;53.586;10.040;2023-01-28T02:53:35;1.35;;;1.00;;
7563;SDS011;3823;53.586;10.040;2023-01-28T02:59:02;1.52;;;1.42;;
7563;SDS011;3823;53.586;10.040;2023-01-28T03:02:41;1.25;;;1.00;;
7563;SDS011;3823;53.586;10.040;2023-01-28T03:05:02;2.20;;;1.20;;
7563;SDS011;3823;53.586;10.040;2023-01-28T03:07:36;1.20;;;1.10;;
7563;SDS011;3823;53.586;10.040;2023-01-28T03:10:03;1.92;;;1.45;;
7563;SDS011;3823;53.586;10.040;2023-01-28T03:12:32;1.50;;;1.23;;
7563;SDS011;3823;53.586;10.040;2023-01-28T03:15:20;2.25;;;1.75;;
7563;SDS011;3823;53.586;10.040;2023-01-28T03:21:14;1.20;;;1.00;;
7563;SDS011;3823;53.586;10.040;2023-01-28T03:24:02;3.05;;;1.40;;
7563;SDS011;3823;53.586;10.040;2023-01-28T03:29:41;1.33;;;1.02;;
7563;SDS011;3823;53.586;10.040;2023-01-28T03:32:27;1.20;;;1.08;;
7563;SDS011;3823;53.586;10.040;2023-01-28T03:35:13;2.83;;;1.30;;
7563;SDS011;3823;53.586;10.040;2023-01-28T03:38:00;2.40;;;1.70;;
7563;SDS011;3823;53.586;10.040;2023-01-28T03:40:51;2.95;;;1.30;;
7563;SDS011;3823;53.586;10.040;2023-01-28T03:43:20;4.65;;;1.10;;
7563;SDS011;3823;53.586;10.040;2023-01-28T03:45:46;1.58;;;1.48;;
7563;SDS011;3823;53.586;10.040;2023-01-28T03:48:16;1.30;;;1.10;;
7563;SDS011;3823;53.586;10.040;2023-01-28T03:50:49;3.85;;;1.83;;
7563;SDS011;3823;53.586;10.040;2023-01-28T03:53:16;3.53;;;1.55;;
7563;SDS011;3823;53.586;10.040;2023-01-28T03:55:43;2.63;;;1.58;;
7563;SDS011;3823;53.586;10.040;2023-01-28T03:58:10;3.40;;;1.88;;
7563;SDS011;3823;53.586;10.040;2023-01-28T04:00:36;2.10;;;2.00;;
7563;SDS011;3823;53.586;10.040;2023-01-28T04:03:05;4.88;;;2.08;;
7563;SDS011;3823;53.586;10.040;2023-01-28T04:05:42;2.88;;;2.20;;
7563;SDS011;3823;53.586;10.040;2023-01-28T04:08:11;3.33;;;2.30;;
7563;SDS011;3823;53.586;10.040;2023-01-28T04:10:38;1.90;;;1.80;;
7563;SDS011;3823;53.586;10.040;2023-01-28T04:13:04;3.33;;;2.05;;
7563;SDS011;3823;53.586;10.040;2023-01-28T04:15:31;1.77;;;1.67;;
7563;SDS011;3823;53.586;10.040;2023-01-28T04:17:57;2.95;;;2.72;;
7563;SDS011;3823;53.586;10.040;2023-01-28T04:20:23;1.90;;;1.80;;
7563;SDS011;3823;53.586;10.040;2023-01-28T04:22:48;7.85;;;3.20;;
7563;SDS011;3823;53.586;10.040;2023-01-28T04:25:14;3.85;;;2.80;;
7563;SDS011;3823;53.586;10.040;2023-01-28T04:27:40;2.70;;;2.50;;
7563;SDS011;3823;53.586;10.040;2023-01-28T04:30:05;3.13;;;2.83;;
7563;SDS011;3823;53.586;10.040;2023-01-28T04:32:31;3.00;;;2.40;;
7563;SDS011;3823;53.586;10.040;2023-01-28T04:34:57;6.95;;;2.88;;
7563;SDS011;3823;53.586;10.040;2023-01-28T04:37:22;3.97;;;2.63;;
7563;SDS011;3823;53.586;10.040;2023-01-28T04:39:48;4.88;;;3.33;;
7563;SDS011;3823;53.586;10.040;2023-01-28T04:42:14;4.32;;;3.92;;
7563;SDS011;3823;53.586;10.040;2023-01-28T04:44:39;2.90;;;2.70;;
7563;SDS011;3823;53.586;10.040;2023-01-28T04:47:05;2.97;;;2.50;;
7563;SDS011;3823;53.586;10.040;2023-01-28T04:49:30;7.25;;;3.47;;
7563;SDS011;3823;53.586;10.040;2023-01-28T04:51:56;3.78;;;3.50;;
7563;SDS011;3823;53.586;10.040;2023-01-28T04:54:22;3.20;;;2.95;;
7563;SDS011;3823;53.586;10.040;2023-01-28T04:56:47;6.68;;;3.42;;
7563;SDS011;3823;53.586;10.040;2023-01-28T04:59:13;6.13;;;3.38;;
7563;SDS011;3823;53.586;10.040;2023-01-28T05:01:39;6.15;;;3.25;;
7563;SDS011;3823;53.586;10.040;2023-01-28T05:04:04;7.07;;;3.83;;
7563;SDS011;3823;53.586;10.040;2023-01-28T05:06:30;3.53;;;3.22;;
7563;SDS011;3823;53.586;10.040;2023-01-28T05:08:56;3.65;;;3.35;;
7563;SDS011;3823;53.586;10.040;2023-01-28T05:11:22;3.42;;;3.13;;
7563;SDS011;3823;53.586;10.040;2023-01-28T05:13:48;4.38;;;4.07;;
7563;SDS011;3823;53.586;10.040;2023-01-28T05:16:14;3.50;;;3.15;;
7563;SDS011;3823;53.586;10.040;2023-01-28T05:18:40;3.33;;;3.03;;
7563;SDS011;3823;53.586;10.040;2023-01-28T05:21:05;5.18;;;3.83;;
7563;SDS011;3823;53.586;10.040;2023-01-28T05:23:31;5.43;;;3.80;;
7563;SDS011;3823;53.586;10.040;2023-01-28T05:25:57;4.18;;;3.88;;
7563;SDS011;3823;53.586;10.040;2023-01-28T05:28:22;5.53;;;3.33;;
7563;SDS011;3823;53.586;10.040;2023-01-28T05:30:48;4.15;;;3.72;;
7563;SDS011;3823;53.586;10.040;2023-01-28T05:33:14;3.70;;;3.40;;
7563;SDS011;3823;53.586;10.040;2023-01-28T05:35:40;5.22;;;3.75;;
7563;SDS011;3823;53.586;10.040;2023-01-28T05:38:06;3.08;;;2.83;;
7563;SDS011;3823;53.586;10.040;2023-01-28T05:43:08;6.97;;;3.90;;
7563;SDS011;3823;53.586;10.040;2023-01-28T05:45:33;4.47;;;3.92;;
7563;SDS011;3823;53.586;10.040;2023-01-28T05:47:59;6.05;;;3.80;;
7563;SDS011;3823;53.586;10.040;2023-01-28T05:50:24;7.03;;;3.60;;
7563;SDS011;3823;53.586;10.040;2023-01-28T05:52:50;3.78;;;3.47;;
7563;SDS011;3823;53.586;10.040;2023-01-28T05:55:16;8.07;;;3.80;;
7563;SDS011;3823;53.586;10.040;2023-01-28T05:57:41;3.50;;;3.13;;
7563;SDS011;3823;53.586;10.040;2023-01-28T06:00:08;5.22;;;4.38;;
7563;SDS011;3823;53.586;10.040;2023-01-28T06:02:35;6.32;;;5.43;;
7563;SDS011;3823;53.586;10.040;2023-01-28T06:05:00;4.03;;;3.72;;
7563;SDS011;3823;53.586;10.040;2023-01-28T06:07:26;4.38;;;3.97;;
7563;SDS011;3823;53.586;10.040;2023-01-28T06:09:51;4.32;;;3.95;;
7563;SDS011;3823;53.586;10.040;2023-01-28T06:12:17;4.50;;;4.20;;
7563;SDS011;3823;53.586;10.040;2023-01-28T06:14:42;4.10;;;3.75;;
7563;SDS011;3823;53.586;10.040;2023-01-28T06:17:08;4.57;;;4.18;;
7563;SDS011;3823;53.586;10.040;2023-01-28T06:19:34;5.05;;;4.10;;
7563;SDS011;3823;53.586;10.040;2023-01-28T06:21:59;5.55;;;4.55;;
7563;SDS011;3823;53.586;10.040;2023-01-28T06:24:25;7.45;;;5.28;;
7563;SDS011;3823;53.586;10.040;2023-01-28T06:26:50;7.10;;;4.35;;
7563;SDS011;3823;53.586;10.040;2023-01-28T06:29:16;5.47;;;4.97;;
7563;SDS011;3823;53.586;10.040;2023-01-28T06:31:42;8.55;;;5.20;;
7563;SDS011;3823;53.586;10.040;2023-01-28T06:34:08;5.25;;;4.75;;
7563;SDS011;3823;53.586;10.040;2023-01-28T06:36:34;7.97;;;5.63;;
7563;SDS011;3823;53.586;10.040;2023-01-28T06:39:02;7.22;;;6.43;;
7563;SDS011;3823;53.586;10.040;2023-01-28T06:41:28;10.40;;;6.20;;
7563;SDS011;3823;53.586;10.040;2023-01-28T06:43:54;6.28;;;5.70;;
7563;SDS011;3823;53.586;10.040;2023-01-28T06:46:20;9.43;;;5.82;;
7563;SDS011;3823;53.586;10.040;2023-01-28T06:48:45;9.40;;;6.72;;
7563;SDS011;3823;53.586;10.040;2023-01-28T06:51:11;6.82;;;6.22;;
7563;SDS011;3823;53.586;10.040;2023-01-28T06:53:36;9.98;;;7.22;;
7563;SDS011;3823;53.586;10.040;2023-01-28T06:56:02;7.40;;;6.28;;
7563;SDS011;3823;53.586;10.040;2023-01-28T06:58:28;11.82;;;7.90;;
7563;SDS011;3823;53.586;10.040;2023-01-28T07:00:53;8.52;;;6.50;;
7563;SDS011;3823;53.586;10.040;2023-01-28T07:03:19;6.72;;;6.03;;
7563;SDS011;3823;53.586;10.040;2023-01-28T07:05:45;6.55;;;5.95;;
7563;SDS011;3823;53.586;10.040;2023-01-28T07:08:10;7.63;;;6.93;;
7563;SDS011;3823;53.586;10.040;2023-01-28T07:10:36;10.10;;;6.97;;
7563;SDS011;3823;53.586;10.040;2023-01-28T07:13:02;8.27;;;6.75;;
7563;SDS011;3823;53.586;10.040;2023-01-28T07:15:28;7.75;;;6.70;;
7563;SDS011;3823;53.586;10.040;2023-01-28T07:17:53;7.55;;;6.68;;
7563;SDS011;3823;53.586;10.040;2023-01-28T07:20:19;8.30;;;6.40;;
7563;SDS011;3823;53.586;10.040;2023-01-28T07:22:45;7.07;;;6.35;;
7563;SDS011;3823;53.586;10.040;2023-01-28T07:25:11;9.68;;;7.95;;
7563;SDS011;3823;53.586;10.040;2023-01-28T07:27:38;8.85;;;7.45;;
7563;SDS011;3823;53.586;10.040;2023-01-28T07:30:04;7.82;;;7.13;;
7563;SDS011;3823;53.586;10.040;2023-01-28T07:32:30;11.15;;;8.55;;
7563;SDS011;3823;53.586;10.040;2023-01-28T07:34:55;13.38;;;7.30;;
7563;SDS011;3823;53.586;10.040;2023-01-28T07:37:21;9.30;;;8.35;;
7563;SDS011;3823;53.586;10.040;2023-01-28T07:39:47;10.00;;;8.80;;
7563;SDS011;3823;53.586;10.040;2023-01-28T07:42:12;11.35;;;8.77;;
7563;SDS011;3823;53.586;10.040;2023-01-28T07:44:38;10.70;;;9.15;;
7563;SDS011;3823;53.586;10.040;2023-01-28T07:47:04;9.57;;;8.55;;
7563;SDS011;3823;53.586;10.040;2023-01-28T07:49:32;11.88;;;9.30;;
7563;SDS011;3823;53.586;10.040;2023-01-28T07:51:58;11.80;;;7.88;;
7563;SDS011;3823;53.586;10.040;2023-01-28T07:54:24;11.93;;;9.82;;
7563;SDS011;3823;53.586;10.040;2023-01-28T07:56:50;13.35;;;10.05;;
7563;SDS011;3823;53.586;10.040;2023-01-28T07:59:15;13.02;;;9.27;;
7563;SDS011;3823;53.586;10.040;2023-01-28T08:01:41;13.38;;;9.10;;
7563;SDS011;3823;53.586;10.040;2023-01-28T08:04:06;12.63;;;9.43;;
7563;SDS011;3823;53.586;10.040;2023-01-28T08:06:32;10.00;;;9.00;;
7563;SDS011;3823;53.586;10.040;2023-01-28T08:09:02;11.13;;;9.10;;
7563;SDS011;3823;53.586;10.040;2023-01-28T08:11:30;13.00;;;9.05;;
7563;SDS011;3823;53.586;10.040;2023-01-28T08:13:56;9.93;;;8.45;;
7563;SDS011;3823;53.586;10.040;2023-01-28T08:16:22;12.48;;;8.55;;
7563;SDS011;3823;53.586;10.040;2023-01-28T08:18:47;10.45;;;9.00;;
7563;SDS011;3823;53.586;10.040;2023-01-28T08:21:13;10.43;;;8.00;;
7563;SDS011;3823;53.586;10.040;2023-01-28T08:23:38;15.90;;;9.85;;
7563;SDS011;3823;53.586;10.040;2023-01-28T08:26:04;13.75;;;8.65;;
7563;SDS011;3823;53.586;10.040;2023-01-28T08:28:31;13.40;;;9.13;;
7563;SDS011;3823;53.586;10.040;2023-01-28T08:30:58;11.20;;;9.13;;
7563;SDS011;3823;53.586;10.040;2023-01-28T08:33:24;10.73;;;9.23;;
7563;SDS011;3823;53.586;10.040;2023-01-28T08:35:50;18.48;;;8.15;;
7563;SDS011;3823;53.586;10.040;2023-01-28T08:38:15;10.57;;;8.30;;
7563;SDS011;3823;53.586;10.040;2023-01-28T08:40:41;11.68;;;8.77;;
7563;SDS011;3823;53.586;10.040;2023-01-28T08:43:07;8.80;;;6.90;;
7563;SDS011;3823;53.586;10.040;2023-01-28T08:45:33;8.57;;;7.60;;
7563;SDS011;3823;53.586;10.040;2023-01-28T08:48:06;10.07;;;8.93;;
7563;SDS011;3823;53.586;10.040;2023-01-28T08:50:34;10.13;;;7.35;;
7563;SDS011;3823;53.586;10.040;2023-01-28T08:53:05;11.60;;;8.00;;
7563;SDS011;3823;53.586;10.040;2023-01-28T08:55:33;13.45;;;9.70;;
7563;SDS011;3823;53.586;10.040;2023-01-28T08:58:03;10.35;;;7.82;;
7563;SDS011;3823;53.586;10.040;2023-01-28T09:00:30;9.75;;;8.77;;
7563;SDS011;3823;53.586;10.040;2023-01-28T09:02:57;9.18;;;8.25;;
7563;SDS011;3823;53.586;10.040;2023-01-28T09:05:22;9.13;;;8.23;;
7563;SDS011;3823;53.586;10.040;2023-01-28T09:07:48;9.48;;;8.27;;
7563;SDS011;3823;53.586;10.040;2023-01-28T09:10:14;11.00;;;8.88;;
7563;SDS011;3823;53.586;10.040;2023-01-28T09:12:41;10.40;;;7.85;;
7563;SDS011;3823;53.586;10.040;2023-01-28T09:15:07;9.45;;;7.90;;
7563;SDS011;3823;53.586;10.040;2023-01-28T09:17:33;14.38;;;10.23;;
7563;SDS011;3823;53.586;10.040;2023-01-28T09:19:59;12.00;;;9.38;;
7563;SDS011;3823;53.586;10.040;2023-01-28T09:22:25;11.18;;;7.30;;
7563;SDS011;3823;53.586;10.040;2023-01-28T09:24:50;10.55;;;7.53;;
7563;SDS011;3823;53.586;10.040;2023-01-28T09:27:16;11.95;;;7.75;;
7563;SDS011;3823;53.586;10.040;2023-01-28T09:29:42;8.73;;;7.80;;
7563;SDS011;3823;53.586;10.040;2023-01-28T09:32:07;9.30;;;7.75;;
7563;SDS011;3823;53.586;10.040;2023-01-28T09:34:33;11.23;;;7.05;;
7563;SDS011;3823;53.586;10.040;2023-01-28T09:36:58;6.97;;;6.20;;
7563;SDS011;3823;53.586;10.040;2023-01-28T09:39:24;6.55;;;5.93;;
7563;SDS011;3823;53.586;10.040;2023-01-28T09:44:58;9.00;;;8.10;;
7563;SDS011;3823;53.586;10.040;2023-01-28T09:47:32;7.93;;;7.13;;
7563;SDS011;3823;53.586;10.040;2023-01-28T09:50:10;8.27;;;7.60;;
7563;SDS011;3823;53.586;10.040;2023-01-28T09:52:40;10.02;;;7.70;;
7563;SDS011;3823;53.586;10.040;2023-01-28T09:55:12;9.02;;;6.88;;
7563;SDS011;3823;53.586;10.040;2023-01-28T09:57:49;8.07;;;7.32;;
7563;SDS011;3823;53.586;10.040;2023-01-28T10:00:18;7.10;;;6.55;;
7563;SDS011;3823;53.586;10.040;2023-01-28T10:03:00;6.78;;;6.10;;
7563;SDS011;3823;53.586;10.040;2023-01-28T10:11:09;11.48;;;7.13;;
7563;SDS011;3823;53.586;10.040;2023-01-28T10:16:39;7.30;;;6.70;;
7563;SDS011;3823;53.586;10.040;2023-01-28T10:19:16;8.55;;;7.75;;
7563;SDS011;3823;53.586;10.040;2023-01-28T10:21:55;8.77;;;7.93;;
7563;SDS011;3823;53.586;10.040;2023-01-28T10:24:38;9.63;;;6.88;;
7563;SDS011;3823;53.586;10.040;2023-01-28T10:27:14;7.28;;;6.68;;
7563;SDS011;3823;53.586;10.040;2023-01-28T10:29:43;8.70;;;7.68;;
7563;SDS011;3823;53.586;10.040;2023-01-28T10:32:20;7.38;;;6.68;;
7563;SDS011;3823;53.586;10.040;2023-01-28T10:35:01;6.80;;;6.13;;
7563;SDS011;3823;53.586;10.040;2023-01-28T10:37:28;9.77;;;8.07;;
7563;SDS011;3823;53.586;10.040;2023-01-28T10:39:57;6.25;;;5.60;;
7563;SDS011;3823;53.586;10.040;2023-01-28T10:45:29;12.60;;;6.47;;
7563;SDS011;3823;53.586;10.040;2023-01-28T10:47:52;6.38;;;5.80;;
7563;SDS011;3823;53.586;10.040;2023-01-28T10:50:25;7.43;;;6.68;;
7563;SDS011;3823;53.586;10.040;2023-01-28T10:55:23;8.07;;;7.28;;
7563;SDS011;3823;53.586;10.040;2023-01-28T10:57:53;8.45;;;7.65;;
7563;SDS011;3823;53.586;10.040;2023-01-28T11:02:46;10.05;;;7.82;;
7563;SDS011;3823;53.586;10.040;2023-01-28T11:07:40;9.25;;;8.20;;
7563;SDS011;3823;53.586;10.040;2023-01-28T11:12:58;9.68;;;7.65;;
7563;SDS011;3823;53.586;10.040;2023-01-28T11:15:25;13.60;;;8.60;;
7563;SDS011;3823;53.586;10.040;2023-01-28T11:17:56;14.50;;;7.40;;
7563;SDS011;3823;53.586;10.040;2023-01-28T11:20:26;13.35;;;8.60;;
7563;SDS011;3823;53.586;10.040;2023-01-28T11:22:54;9.70;;;8.48;;
7563;SDS011;3823;53.586;10.040;2023-01-28T11:27:52;9.95;;;8.05;;
7563;SDS011;3823;53.586;10.040;2023-01-28T11:32:56;12.38;;;8.65;;
7563;SDS011;3823;53.586;10.040;2023-01-28T11:35:25;11.00;;;8.13;;
7563;SDS011;3823;53.586;10.040;2023-01-28T11:37:52;12.18;;;7.40;;
7563;SDS011;3823;53.586;10.040;2023-01-28T11:40:18;13.02;;;8.50;;
7563;SDS011;3823;53.586;10.040;2023-01-28T11:42:45;10.10;;;8.30;;
7563;SDS011;3823;53.586;10.040;2023-01-28T11:45:17;10.85;;;8.07;;
7563;SDS011;3823;53.586;10.040;2023-01-28T11:47:52;9.60;;;8.57;;
7563;SDS011;3823;53.586;10.040;2023-01-28T11:50:30;9.80;;;8.82;;
7563;SDS011;3823;53.586;10.040;2023-01-28T11:53:13;16.73;;;8.48;;
7563;SDS011;3823;53.586;10.040;2023-01-28T12:07:22;10.70;;;8.43;;
7563;SDS011;3823;53.586;10.040;2023-01-28T12:09:58;10.85;;;9.48;;
7563;SDS011;3823;53.586;10.040;2023-01-28T12:15:30;10.70;;;8.45;;
7563;SDS011;3823;53.586;10.040;2023-01-28T12:21:27;13.35;;;9.35;;
7563;SDS011;3823;53.586;10.040;2023-01-28T12:26:50;12.65;;;9.50;;
7563;SDS011;3823;53.586;10.040;2023-01-28T12:34:51;13.52;;;9.15;;
7563;SDS011;3823;53.586;10.040;2023-01-28T12:40:08;16.33;;;9.48;;
7563;SDS011;3823;53.586;10.040;2023-01-28T12:45:39;11.20;;;9.00;;
7563;SDS011;3823;53.586;10.040;2023-01-28T12:48:11;10.70;;;8.65;;
7563;SDS011;3823;53.586;10.040;2023-01-28T12:50:44;10.80;;;8.52;;
7563;SDS011;3823;53.586;10.040;2023-01-28T12:56:49;18.75;;;8.52;;
7563;SDS011;3823;53.586;10.040;2023-01-28T12:59:45;12.10;;;8.30;;
7563;SDS011;3823;53.586;10.040;2023-01-28T13:07:06;13.23;;;9.90;;
7563;SDS011;3823;53.586;10.040;2023-01-28T13:10:04;11.98;;;9.27;;
7563;SDS011;3823;53.586;10.040;2023-01-28T13:12:40;14.88;;;10.15;;
7563;SDS011;3823;53.586;10.040;2023-01-28T13:15:13;16.08;;;10.63;;
7563;SDS011;3823;53.586;10.040;2023-01-28T13:17:52;12.43;;;9.10;;
7563;SDS011;3823;53.586;10.040;2023-01-28T13:20:29;12.50;;;9.07;;
7563;SDS011;3823;53.586;10.040;2023-01-28T13:23:04;13.57;;;10.70;;
7563;SDS011;3823;53.586;10.040;2023-01-28T13:25:49;13.73;;;10.60;;
7563;SDS011;3823;53.586;10.040;2023-01-28T13:28:28;13.98;;;8.98;;
7563;SDS011;3823;53.586;10.040;2023-01-28T13:31:03;14.27;;;10.10;;
7563;SDS011;3823;53.586;10.040;2023-01-28T13:33:37;15.38;;;10.98;;
7563;SDS011;3823;53.586;10.040;2023-01-28T13:39:01;14.65;;;10.82;;
7563;SDS011;3823;53.586;10.040;2023-01-28T13:42:22;14.05;;;10.73;;
7563;SDS011;3823;53.586;10.040;2023-01-28T13:44:34;16.02;;;9.52;;
7563;SDS011;3823;53.586;10.040;2023-01-28T13:49:33;13.85;;;11.23;;
7563;SDS011;3823;53.586;10.040;2023-01-28T13:52:28;13.18;;;10.32;;
7563;SDS011;3823;53.586;10.040;2023-01-28T13:55:03;17.45;;;12.02;;
7563;SDS011;3823;53.586;10.040;2023-01-28T14:00:31;20.48;;;11.15;;
7563;SDS011;3823;53.586;10.040;2023-01-28T14:20:31;15.85;;;11.10;;
7563;SDS011;3823;53.586;10.040;2023-01-28T14:23:02;20.98;;;10.90;;
7563;SDS011;3823;53.586;10.040;2023-01-28T14:28:22;14.85;;;10.93;;
7563;SDS011;3823;53.586;10.040;2023-01-28T14:30:55;15.90;;;11.23;;
7563;SDS011;3823;53.586;10.040;2023-01-28T14:33:28;18.27;;;12.23;;
7563;SDS011;3823;53.586;10.040;2023-01-28T14:35:56;17.45;;;11.98;;
7563;SDS011;3823;53.586;10.040;2023-01-28T14:38:22;27.20;;;11.52;;
7563;SDS011;3823;53.586;10.040;2023-01-28T14:40:49;16.27;;;11.52;;
7563;SDS011;3823;53.586;10.040;2023-01-28T14:43:23;19.58;;;12.02;;
7563;SDS011;3823;53.586;10.040;2023-01-28T14:48:49;15.60;;;11.07;;
7563;SDS011;3823;53.586;10.040;2023-01-28T14:55:08;15.38;;;9.95;;
7563;SDS011;3823;53.586;10.040;2023-01-28T15:00:16;15.73;;;10.20;;
7563;SDS011;3823;53.586;10.040;2023-01-28T15:02:45;16.95;;;11.52;;
7563;SDS011;3823;53.586;10.040;2023-01-28T15:05:24;18.50;;;11.45;;
7563;SDS011;3823;53.586;10.040;2023-01-28T15:07:51;15.93;;;11.55;;
7563;SDS011;3823;53.586;10.040;2023-01-28T15:10:25;19.30;;;11.35;;
7563;SDS011;3823;53.586;10.040;2023-01-28T15:12:55;16.45;;;10.85;;
7563;SDS011;3823;53.586;10.040;2023-01-28T15:15:30;16.08;;;10.82;;
7563;SDS011;3823;53.586;10.040;2023-01-28T15:18:28;16.52;;;10.43;;
7563;SDS011;3823;53.586;10.040;2023-01-28T15:20:49;20.33;;;9.57;;
7563;SDS011;3823;53.586;10.040;2023-01-28T15:23:17;14.10;;;9.98;;
7563;SDS011;3823;53.586;10.040;2023-01-28T15:25:49;21.75;;;11.75;;
7563;SDS011;3823;53.586;10.040;2023-01-28T15:28:24;17.23;;;10.57;;
7563;SDS011;3823;53.586;10.040;2023-01-28T15:30:52;16.08;;;10.50;;
7563;SDS011;3823;53.586;10.040;2023-01-28T15:33:19;15.95;;;10.63;;
7563;SDS011;3823;53.586;10.040;2023-01-28T15:35:47;17.70;;;11.90;;
7563;SDS011;3823;53.586;10.040;2023-01-28T15:38:17;19.63;;;11.52;;
7563;SDS011;3823;53.586;10.040;2023-01-28T15:40:43;19.45;;;11.90;;
7563;SDS011;3823;53.586;10.040;2023-01-28T15:43:22;18.70;;;11.43;;
7563;SDS011;3823;53.586;10.040;2023-01-28T15:45:59;17.42;;;10.85;;
7563;SDS011;3823;53.586;10.040;2023-01-28T15:48:29;17.38;;;10.75;;
7563;SDS011;3823;53.586;10.040;2023-01-28T15:51:04;15.60;;;10.63;;
7563;SDS011;3823;53.586;10.040;2023-01-28T15:53:33;14.60;;;9.70;;
7563;SDS011;3823;53.586;10.040;2023-01-28T15:56:05;17.02;;;10.95;;
7563;SDS011;3823;53.586;10.040;2023-01-28T15:58:32;19.15;;;12.15;;
7563;SDS011;3823;53.586;10.040;2023-01-28T16:01:11;15.88;;;11.55;;
7563;SDS011;3823;53.586;10.040;2023-01-28T16:03:41;18.13;;;11.02;;
7563;SDS011;3823;53.586;10.040;2023-01-28T16:06:09;21.00;;;10.02;;
7563;SDS011;3823;53.586;10.040;2023-01-28T16:08:45;22.45;;;10.20;;
7563;SDS011;3823;53.586;10.040;2023-01-28T16:11:22;12.30;;;9.52;;
7563;SDS011;3823;53.586;10.040;2023-01-28T16:13:50;15.07;;;9.77;;
7563;SDS011;3823;53.586;10.040;2023-01-28T16:16:23;16.20;;;10.45;;
7563;SDS011;3823;53.586;10.040;2023-01-28T16:18:52;17.98;;;10.25;;
7563;SDS011;3823;53.586;10.040;2023-01-28T16:21:30;16.48;;;9.77;;
7563;SDS011;3823;53.586;10.040;2023-01-28T16:26:34;16.25;;;9.85;;
7563;SDS011;3823;53.586;10.040;2023-01-28T16:29:05;26.63;;;10.65;;
7563;SDS011;3823;53.586;10.040;2023-01-28T16:31:40;17.98;;;10.52;;
7563;SDS011;3823;53.586;10.040;2023-01-28T16:34:07;17.73;;;10.55;;
7563;SDS011;3823;53.586;10.040;2023-01-28T16:36:34;16.52;;;10.20;;
7563;SDS011;3823;53.586;10.040;2023-01-28T16:39:00;14.50;;;9.50;;
7563;SDS011;3823;53.586;10.040;2023-01-28T16:41:27;17.05;;;10.98;;
7563;SDS011;3823;53.586;10.040;2023-01-28T16:43:56;18.30;;;12.23;;
7563;SDS011;3823;53.586;10.040;2023-01-28T16:46:25;20.88;;;11.23;;
7563;SDS011;3823;53.586;10.040;2023-01-28T16:48:51;23.88;;;11.88;;
7563;SDS011;3823;53.586;10.040;2023-01-28T16:51:17;18.52;;;11.85;;
7563;SDS011;3823;53.586;10.040;2023-01-28T16:53:44;17.63;;;11.07;;
7563;SDS011;3823;53.586;10.040;2023-01-28T16:56:15;19.38;;;11.63;;
7563;SDS011;3823;53.586;10.040;2023-01-28T16:58:43;19.63;;;11.20;;
7563;SDS011;3823;53.586;10.040;2023-01-28T17:01:08;17.05;;;10.88;;
7563;SDS011;3823;53.586;10.040;2023-01-28T17:03:35;16.38;;;10.40;;
7563;SDS011;3823;53.586;10.040;2023-01-28T17:06:02;20.55;;;11.48;;
7563;SDS011;3823;53.586;10.040;2023-01-28T17:08:27;20.15;;;12.80;;
7563;SDS011;3823;53.586;10.040;2023-01-28T17:10:53;18.80;;;11.05;;
7563;SDS011;3823;53.586;10.040;2023-01-28T17:13:20;20.33;;;11.65;;
7563;SDS011;3823;53.586;10.040;2023-01-28T17:15:46;21.20;;;11.05;;
7563;SDS011;3823;53.586;10.040;2023-01-28T17:18:11;22.30;;;12.85;;
7563;SDS011;3823;53.586;10.040;2023-01-28T17:20:37;20.33;;;13.68;;
7563;SDS011;3823;53.586;10.040;2023-01-28T17:23:07;22.08;;;13.27;;